createdAt,value
2022-08-29T00:04:22.251Z,58.90
2022-08-29T00:06:49.266Z,59.04
2022-08-29T00:09:18.255Z,59.08
2022-08-29T00:11:48.156Z,58.92
2022-08-29T00:14:23.386Z,59.21
2022-08-29T00:16:50.531Z,59.23
2022-08-29T00:19:20.458Z,59.42
2022-08-29T00:21:47.381Z,59.62
2022-08-29T00:24:16.382Z,59.26
2022-08-29T00:26:43.340Z,59.46
2022-08-29T00:29:10.352Z,59.34
2022-08-29T00:31:38.921Z,59.23
2022-08-29T00:34:08.692Z,59.64
2022-08-29T00:36:35.612Z,59.33
2022-08-29T00:39:09.304Z,59.52
2022-08-29T00:42:19.363Z,59.43
2022-08-29T00:51:27.454Z,59.39
2022-08-29T00:54:28.820Z,59.62
2022-08-29T00:57:38.782Z,59.72
2022-08-29T01:00:19.027Z,59.64
2022-08-29T01:03:12.804Z,59.82
2022-08-29T01:06:00.053Z,59.73
2022-08-29T01:08:37.200Z,59.46
2022-08-29T01:11:34.532Z,59.28
2022-08-29T01:17:16.455Z,59.39
2022-08-29T01:19:59.611Z,59.33
2022-08-29T01:23:12.875Z,59.48
2022-08-29T01:25:54.360Z,59.18
2022-08-29T01:28:44.699Z,59.35
2022-08-29T01:37:23.333Z,59.27
2022-08-29T01:40:08.312Z,59.18
2022-08-29T01:42:53.419Z,59.39
2022-08-29T01:45:35.999Z,59.30
2022-08-29T01:48:39.585Z,59.18
2022-08-29T01:54:17.989Z,59.33
2022-08-29T01:57:17.819Z,59.18
2022-08-29T01:59:58.293Z,59.44
2022-08-29T02:02:29.881Z,59.51
2022-08-29T02:04:59.603Z,59.73
2022-08-29T02:07:33.514Z,59.61
2022-08-29T02:10:05.109Z,59.57
2022-08-29T02:12:48.240Z,59.81
2022-08-29T02:15:20.396Z,59.92
2022-08-29T02:17:48.824Z,60.08
2022-08-29T02:20:27.289Z,60.30
2022-08-29T02:22:57.471Z,60.32
2022-08-29T02:25:45.001Z,60.45
2022-08-29T02:28:17.210Z,60.52
2022-08-29T02:30:50.511Z,60.61
2022-08-29T02:33:40.492Z,60.82
2022-08-29T02:36:12.530Z,61.32
2022-08-29T02:38:42.839Z,61.54
2022-08-29T02:41:14.025Z,61.39
2022-08-29T02:43:44.326Z,62.12
2022-08-29T02:46:24.549Z,61.64
2022-08-29T02:48:59.984Z,62.16
2022-08-29T02:51:30.293Z,62.95
2022-08-29T02:53:57.670Z,63.06
2022-08-29T02:56:25.777Z,63.26
2022-08-29T02:58:55.914Z,64.02
2022-08-29T03:01:26.405Z,64.08
2022-08-29T03:03:54.414Z,64.43
2022-08-29T03:06:23.491Z,64.78
2022-08-29T03:08:50.636Z,65.12
2022-08-29T03:11:22.827Z,65.33
2022-08-29T03:13:58.780Z,65.48
2022-08-29T03:16:30.053Z,65.74
2022-08-29T03:18:57.602Z,66.10
2022-08-29T03:21:26.630Z,65.88
2022-08-29T03:23:56.670Z,66.26
2022-08-29T03:26:29.706Z,66.38
2022-08-29T03:28:56.678Z,66.63
2022-08-29T03:31:28.753Z,66.69
2022-08-29T03:34:13.224Z,67.05
2022-08-29T03:36:46.235Z,67.12
2022-08-29T03:39:23.976Z,67.13
2022-08-29T03:42:04.597Z,67.24
2022-08-29T03:44:36.334Z,67.51
2022-08-29T03:47:09.487Z,67.71
2022-08-29T03:50:00.369Z,68.61
2022-08-29T03:52:36.195Z,68.18
2022-08-29T03:55:04.035Z,68.39
2022-08-29T03:57:36.279Z,68.45
2022-08-29T04:00:11.806Z,68.79
2022-08-29T04:02:39.495Z,69.01
2022-08-29T04:05:08.977Z,68.94
2022-08-29T04:07:51.872Z,69.02
2022-08-29T04:10:24.633Z,69.12
2022-08-29T04:12:55.363Z,69.16
2022-08-29T04:15:27.846Z,69.36
2022-08-29T04:17:56.732Z,69.21
2022-08-29T04:20:31.515Z,69.27
2022-08-29T04:23:05.309Z,69.28
2022-08-29T04:25:36.774Z,69.52
2022-08-29T04:28:05.924Z,69.74
2022-08-29T04:33:52.318Z,69.59
2022-08-29T04:36:56.373Z,69.78
2022-08-29T04:42:28.544Z,70.08
2022-08-29T04:45:04.379Z,69.97
2022-08-29T04:47:44.548Z,70.47
2022-08-29T04:50:18.507Z,70.38
2022-08-29T04:52:56.539Z,70.70
2022-08-29T04:58:44.681Z,70.61
2022-08-29T05:04:20.742Z,71.08
2022-08-29T05:14:02.495Z,71.61
2022-08-29T05:16:34.706Z,71.72
2022-08-29T05:19:01.725Z,71.48
2022-08-29T05:21:30.933Z,71.63
2022-08-29T05:24:05.688Z,71.70
2022-08-29T05:26:44.506Z,71.74
2022-08-29T05:29:17.710Z,71.87
2022-08-29T05:31:48.163Z,71.98
2022-08-29T05:34:34.020Z,71.98
2022-08-29T05:37:11.792Z,72.10
2022-08-29T05:39:39.557Z,72.19
2022-08-29T05:42:07.921Z,72.32
2022-08-29T05:44:40.050Z,72.27
2022-08-29T05:47:16.615Z,72.57
2022-08-29T05:50:00.399Z,72.35
2022-08-29T05:52:29.974Z,72.56
2022-08-29T05:54:58.754Z,72.90
2022-08-29T05:57:25.645Z,72.91
2022-08-29T05:59:54.835Z,72.72
2022-08-29T06:02:23.274Z,73.01
2022-08-29T06:04:50.110Z,72.93
2022-08-29T06:07:20.230Z,73.12
2022-08-29T06:09:48.814Z,73.21
2022-08-29T06:12:15.672Z,73.07
2022-08-29T06:14:50.415Z,73.12
2022-08-29T06:17:19.710Z,72.96
2022-08-29T06:19:50.869Z,73.04
2022-08-29T06:22:18.229Z,72.87
2022-08-29T06:24:47.922Z,72.95
2022-08-29T06:27:17.987Z,72.85
2022-08-29T06:29:44.916Z,72.91
2022-08-29T06:32:11.929Z,73.31
2022-08-29T06:34:40.228Z,73.21
2022-08-29T06:37:06.980Z,73.49
2022-08-29T06:39:34.533Z,73.29
2022-08-29T06:42:04.261Z,73.60
2022-08-29T06:44:31.605Z,73.67
2022-08-29T06:46:59.485Z,73.70
2022-08-29T06:49:27.345Z,73.60
2022-08-29T06:51:58.743Z,73.73
2022-08-29T06:54:28.724Z,74.67
2022-08-29T06:56:57.016Z,73.96
2022-08-29T06:59:26.915Z,73.70
2022-08-29T07:01:56.538Z,73.68
2022-08-29T07:04:23.451Z,73.93
2022-08-29T07:06:55.268Z,73.98
2022-08-29T07:09:22.474Z,73.84
2022-08-29T07:11:49.228Z,74.13
2022-08-29T07:14:16.323Z,73.99
2022-08-29T07:16:44.839Z,74.24
2022-08-29T07:19:11.677Z,74.30
2022-08-29T07:21:39.571Z,74.37
2022-08-29T07:24:12.995Z,74.62
2022-08-29T07:26:43.327Z,74.46
2022-08-29T07:29:14.211Z,74.45
2022-08-29T07:31:42.622Z,74.70
2022-08-29T07:34:15.921Z,74.60
2022-08-29T07:36:43.223Z,74.24
2022-08-29T07:39:18.740Z,74.08
2022-08-29T07:41:47.978Z,74.41
2022-08-29T07:44:15.882Z,74.28
2022-08-29T07:46:44.940Z,74.30
2022-08-29T07:49:14.139Z,74.40
2022-08-29T07:51:44.588Z,74.07
2022-08-29T07:54:13.331Z,73.46
2022-08-29T07:56:43.044Z,73.13
2022-08-29T07:59:15.990Z,72.76
2022-08-29T08:01:46.592Z,72.61
2022-08-29T08:04:21.592Z,72.01
2022-08-29T08:06:54.080Z,72.04
2022-08-29T08:12:27.362Z,71.07
2022-08-29T08:15:03.288Z,70.65
2022-08-29T08:17:33.239Z,70.53
2022-08-29T08:20:02.552Z,70.37
2022-08-29T08:22:31.679Z,70.27
2022-08-29T08:25:00.375Z,69.73
2022-08-29T08:27:50.275Z,69.15
2022-08-29T08:30:51.346Z,69.14
2022-08-29T08:33:18.470Z,69.29
2022-08-29T08:35:46.817Z,68.90
2022-08-29T08:38:19.873Z,68.41
2022-08-29T08:41:00.699Z,68.27
2022-08-29T08:43:49.427Z,66.82
2022-08-29T08:46:22.533Z,66.63
2022-08-29T08:48:54.355Z,65.90
2022-08-29T08:51:32.094Z,65.47
2022-08-29T08:54:04.502Z,65.03
2022-08-29T08:56:38.638Z,64.59
2022-08-29T08:59:12.859Z,64.66
2022-08-29T09:01:45.397Z,64.38
2022-08-29T09:04:33.621Z,64.66
2022-08-29T09:07:16.369Z,64.85
2022-08-29T09:10:03.697Z,64.87
2022-08-29T09:12:44.374Z,64.72
2022-08-29T09:15:15.760Z,64.68
2022-08-29T09:17:44.048Z,64.13
2022-08-29T09:23:25.432Z,64.59
2022-08-29T09:25:52.699Z,64.57
2022-08-29T09:28:24.134Z,63.85
2022-08-29T09:31:27.880Z,63.72
2022-08-29T09:34:05.377Z,62.83
2022-08-29T09:36:45.845Z,63.13
2022-08-29T09:39:20.968Z,63.30
2022-08-29T09:41:52.399Z,63.79
2022-08-29T09:44:26.926Z,63.29
2022-08-29T09:47:10.474Z,63.20
2022-08-29T09:49:38.874Z,62.96
2022-08-29T09:52:14.718Z,62.07
2022-08-29T09:54:45.430Z,62.06
2022-08-29T09:57:23.373Z,62.83
2022-08-29T10:00:14.298Z,62.25
2022-08-29T10:02:52.883Z,62.26
2022-08-29T10:05:39.727Z,61.92
2022-08-29T10:08:24.715Z,61.01
2022-08-29T10:10:56.870Z,59.98
2022-08-29T10:13:46.283Z,55.93
2022-08-29T10:16:30.276Z,57.12
2022-08-29T10:19:16.036Z,55.15
2022-08-29T10:25:14.026Z,53.76
2022-08-29T10:27:49.704Z,54.48
2022-08-29T10:30:32.954Z,53.63
2022-08-29T10:33:20.178Z,53.74
2022-08-29T11:02:52.970Z,60.49
2022-08-29T11:05:32.532Z,58.61
2022-08-29T11:08:16.453Z,57.40
2022-08-29T11:10:55.456Z,56.98
2022-08-29T11:13:32.807Z,56.64
2022-08-29T11:16:13.692Z,56.56
2022-08-29T11:18:48.889Z,56.60
2022-08-29T11:21:30.649Z,56.87
2022-08-29T11:23:57.688Z,56.82
2022-08-29T11:26:44.072Z,57.16
2022-08-29T11:29:22.621Z,57.17
2022-08-29T11:32:03.433Z,57.67
2022-08-29T11:35:03.625Z,58.20
2022-08-29T11:38:06.158Z,58.20
2022-08-29T11:43:57.626Z,58.33
2022-08-29T11:46:46.731Z,58.83
2022-08-29T11:49:37.963Z,58.33
2022-08-29T11:52:34.976Z,58.43
2022-08-29T11:55:35.686Z,58.42
2022-08-29T11:58:23.527Z,57.80
2022-08-29T12:01:30.176Z,57.89
2022-08-29T12:04:03.206Z,57.45
2022-08-29T12:07:01.336Z,57.03
2022-08-29T12:09:50.489Z,56.79
2022-08-29T12:12:45.499Z,56.25
2022-08-29T12:15:54.918Z,56.43
2022-08-29T12:18:45.023Z,56.21
2022-08-29T12:21:58.275Z,55.82
2022-08-29T12:24:57.087Z,55.84
2022-08-29T12:28:02.766Z,56.00
2022-08-29T12:30:48.008Z,56.26
2022-08-29T12:33:38.148Z,56.30
2022-08-29T12:36:18.238Z,55.81
2022-08-29T12:39:12.530Z,56.05
2022-08-29T12:42:11.905Z,56.26
2022-08-29T12:44:47.841Z,56.49
2022-08-29T12:47:25.903Z,56.65
2022-08-29T12:50:16.682Z,56.89
2022-08-29T12:53:01.404Z,57.10
2022-08-29T12:55:35.691Z,57.52
2022-08-29T12:58:12.843Z,57.37
2022-08-29T13:00:43.261Z,56.98
2022-08-29T13:03:21.988Z,56.46
2022-08-29T13:06:10.912Z,56.21
2022-08-29T13:08:50.043Z,56.30
2022-08-29T13:11:20.842Z,56.33
2022-08-29T13:14:20.811Z,56.35
2022-08-29T13:17:03.095Z,56.58
2022-08-29T13:19:33.224Z,56.64
2022-08-29T13:22:14.543Z,56.35
2022-08-29T13:24:55.300Z,57.39
2022-08-29T13:31:40.815Z,57.33
2022-08-29T13:33:49.836Z,57.91
2022-08-29T13:36:54.169Z,57.40
2022-08-29T13:39:41.143Z,57.67
2022-08-29T13:42:42.389Z,57.41
2022-08-29T14:17:24.551Z,63.80
2022-08-29T14:19:58.059Z,64.15
2022-08-29T14:22:38.172Z,64.44
2022-08-29T14:25:12.736Z,64.03
2022-08-29T14:27:45.598Z,64.07
2022-08-29T14:30:18.752Z,64.35
2022-08-29T14:32:45.978Z,64.63
2022-08-29T14:35:27.402Z,64.29
2022-08-29T14:38:10.476Z,63.42
2022-08-29T14:40:52.537Z,63.27
2022-08-29T14:43:26.786Z,62.43
2022-08-29T14:46:00.119Z,61.07
2022-08-29T14:48:28.885Z,60.96
2022-08-29T14:50:58.963Z,60.65
2022-08-29T14:53:28.747Z,60.80
2022-08-29T14:56:00.896Z,60.88
2022-08-29T14:58:30.296Z,60.96
2022-08-29T15:01:16.321Z,60.73
2022-08-29T15:03:45.081Z,60.64
2022-08-29T15:09:05.377Z,61.10
2022-08-29T15:11:50.030Z,61.32
2022-08-29T15:17:47.727Z,61.24
2022-08-29T15:20:43.680Z,61.15
2022-08-29T15:26:20.735Z,61.33
2022-08-29T15:28:53.417Z,61.54
2022-08-29T15:31:21.088Z,62.04
2022-08-29T15:33:49.865Z,62.14
2022-08-29T15:36:20.294Z,61.73
2022-08-29T15:38:47.163Z,61.82
2022-08-29T15:41:14.439Z,61.93
2022-08-29T15:43:41.484Z,61.75
2022-08-29T15:46:11.360Z,61.81
2022-08-29T15:49:05.774Z,61.87
2022-08-29T15:51:40.574Z,61.65
2022-08-29T15:54:08.088Z,61.87
2022-08-29T15:56:43.178Z,61.64
2022-08-29T15:59:36.031Z,61.64
2022-08-29T16:02:18.623Z,61.88
2022-08-29T16:04:56.511Z,61.51
2022-08-29T16:07:24.397Z,61.69
2022-08-29T16:09:57.722Z,62.09
2022-08-29T16:12:25.340Z,62.04
2022-08-29T16:15:00.812Z,62.18
2022-08-29T16:17:29.555Z,62.22
2022-08-29T16:20:09.397Z,62.67
2022-08-29T16:22:40.353Z,62.67
2022-08-29T16:28:00.898Z,62.64
2022-08-29T16:30:33.171Z,62.03
2022-08-29T16:33:11.560Z,61.84
2022-08-29T16:35:43.077Z,62.00
2022-08-29T16:38:21.826Z,61.99
2022-08-29T16:40:55.730Z,62.07
2022-08-29T16:43:28.250Z,62.05
2022-08-29T16:46:03.791Z,62.04
2022-08-29T16:48:32.925Z,62.38
2022-08-29T16:51:04.207Z,62.48
2022-08-29T16:53:39.284Z,62.27
2022-08-29T16:56:30.396Z,62.59
2022-08-29T16:59:05.089Z,62.59
2022-08-29T17:02:20.053Z,62.23
2022-08-29T17:05:01.604Z,62.25
2022-08-29T17:07:31.869Z,62.14
2022-08-29T17:10:33.315Z,62.39
2022-08-29T17:13:02.591Z,62.27
2022-08-29T17:15:37.759Z,62.45
2022-08-29T17:18:25.599Z,62.16
2022-08-29T17:21:04.587Z,61.79
2022-08-29T17:23:49.506Z,61.89
2022-08-29T17:32:35.794Z,62.35
2022-08-29T17:35:14.181Z,62.54
2022-08-29T17:37:56.811Z,63.04
2022-08-29T17:40:42.610Z,63.10
2022-08-29T17:43:41.172Z,63.58
2022-08-29T17:46:58.034Z,63.42
2022-08-29T17:49:29.437Z,63.84
2022-08-29T17:52:16.747Z,65.22
2022-08-29T17:54:50.291Z,64.34
2022-08-29T17:57:43.932Z,64.34
2022-08-29T18:00:17.325Z,64.36
2022-08-29T20:11:02.157Z,71.63
2022-08-29T20:14:05.952Z,71.55
2022-08-29T20:23:59.000Z,71.99
2022-08-29T20:26:41.627Z,72.09
2022-08-29T20:39:36.092Z,73.21
2022-08-29T20:42:08.618Z,73.04
2022-08-29T20:44:37.242Z,73.16
2022-08-29T20:47:07.882Z,73.30
2022-08-29T20:49:37.445Z,73.44
2022-08-29T20:52:05.418Z,73.42
2022-08-29T20:54:35.909Z,73.39
2022-08-29T20:57:10.237Z,73.53
2022-08-29T20:59:45.872Z,73.73
2022-08-29T21:02:18.687Z,73.91
2022-08-29T21:05:06.362Z,73.80
2022-08-29T21:07:40.777Z,73.75
2022-08-29T21:10:11.496Z,74.14
2022-08-29T21:16:04.228Z,74.68
2022-08-29T21:18:35.229Z,74.85
2022-08-29T21:21:48.511Z,74.97
2022-08-29T21:24:27.817Z,75.25
2022-08-29T21:27:03.803Z,75.20
2022-08-29T21:29:33.714Z,75.43
2022-08-29T21:38:05.904Z,75.88
2022-08-29T21:40:33.250Z,75.92
2022-08-29T21:43:09.183Z,76.14
2022-08-29T21:45:43.601Z,76.26
2022-08-29T21:48:13.587Z,76.50
2022-08-29T21:50:57.611Z,76.88
2022-08-29T21:53:33.491Z,77.10
2022-08-29T21:56:04.673Z,77.05
2022-08-29T21:58:31.707Z,76.96
2022-08-29T22:01:15.996Z,76.99
2022-08-29T22:04:10.767Z,77.36
2022-08-29T22:09:49.629Z,77.66
2022-08-29T22:12:28.329Z,77.71
2022-08-29T22:15:06.980Z,77.86
2022-08-29T22:17:39.822Z,78.20
2022-08-29T22:20:30.386Z,77.98
2022-08-29T22:23:13.318Z,77.81
2022-08-29T22:25:49.104Z,77.98
2022-08-29T22:28:52.457Z,77.80
2022-08-29T22:31:32.631Z,78.06
2022-08-29T22:34:06.437Z,78.33
2022-08-29T22:36:47.997Z,78.22
2022-08-29T22:42:02.884Z,78.15
2022-08-29T22:47:25.781Z,78.18
2022-08-29T22:50:01.980Z,78.19
2022-08-29T22:52:30.663Z,78.46
2022-08-29T22:54:59.801Z,78.63
2022-08-29T22:57:29.098Z,78.83
2022-08-29T22:59:58.119Z,78.81
2022-08-29T23:02:35.344Z,78.69
2022-08-29T23:05:09.734Z,78.87
2022-08-29T23:07:39.673Z,78.92
2022-08-29T23:10:10.536Z,79.38
2022-08-29T23:12:40.417Z,79.29
2022-08-29T23:18:29.043Z,79.66
2022-08-29T23:20:59.390Z,79.45
2022-08-29T23:23:33.577Z,79.52
2022-08-29T23:26:01.363Z,79.71
2022-08-29T23:28:30.148Z,79.59
2022-08-29T23:31:02.801Z,79.85
2022-08-29T23:33:29.705Z,80.06
2022-08-29T23:36:09.448Z,80.26
2022-08-29T23:38:41.641Z,80.35
2022-08-29T23:41:18.320Z,80.09
2022-08-29T23:43:48.189Z,80.24
2022-08-29T23:49:43.154Z,80.44
2022-08-29T23:59:16.860Z,80.34
